Time;durP1;ratioP1;P1;durP2;ratioP2;P2;SDS_P1;SDS_P2;PMS_P1;PMS_P2;Temp;Humidity;BMP_temperature;BMP_pressure;BME280_temperature;BME280_humidity;BME280_pressure;Samples;Min_cycle;Max_cycle;Signal;HPM_P1;HPM_P2
2022/07/14 00:02:19;;;;;;;3.00;1.73;;;23.30;68.30;;;;;;10515037;28;20283;-82
2022/07/14 00:07:21;;;;;;;2.70;2.50;;;23.30;69.10;;;;;;10505932;28;20220;-82
2022/07/14 00:12:23;;;;;;;2.80;2.70;;;23.40;66.60;;;;;;10516770;28;20223;-83
2022/07/14 00:17:26;;;;;;;4.60;2.20;;;23.40;66.00;;;;;;10522847;28;20220;-81
2022/07/14 00:22:29;;;;;;;2.00;1.90;;;23.30;65.10;;;;;;10519214;28;20203;-82
2022/07/14 00:27:31;;;;;;;1.90;1.80;;;23.30;66.00;;;;;;10515519;28;20254;-81
2022/07/14 00:32:35;;;;;;;2.00;1.87;;;23.30;67.10;;;;;;10509963;28;20235;-82
2022/07/14 00:37:38;;;;;;;1.80;1.70;;;23.30;67.20;;;;;;10508525;28;20303;-82
2022/07/14 00:42:43;;;;;;;1.80;1.70;;;23.20;67.20;;;;;;10504218;28;20200;-82
2022/07/14 00:47:47;;;;;;;1.93;1.83;;;23.20;66.80;;;;;;10523964;28;20303;-83
2022/07/14 00:52:51;;;;;;;2.00;1.90;;;23.10;67.30;;;;;;10516105;28;20683;-83
2022/07/14 00:57:53;;;;;;;2.40;2.30;;;23.10;68.40;;;;;;10520445;28;20223;-83
2022/07/14 01:02:57;;;;;;;3.13;2.10;;;23.10;67.10;;;;;;10514621;28;20195;-83
2022/07/14 01:08:00;;;;;;;1.80;1.70;;;23.00;67.80;;;;;;10521973;28;20291;-82
2022/07/14 01:13:04;;;;;;;2.23;2.03;;;23.00;68.10;;;;;;10505737;28;20367;-83
2022/07/14 01:18:08;;;;;;;2.03;1.93;;;22.90;69.00;;;;;;10526367;28;20302;-83
2022/07/14 01:23:11;;;;;;;3.50;2.10;;;22.80;68.80;;;;;;10523209;28;20261;-82
2022/07/14 01:28:13;;;;;;;1.80;1.70;;;22.80;68.10;;;;;;10534374;28;20624;-83
2022/07/14 01:33:16;;;;;;;1.90;1.80;;;22.70;67.70;;;;;;10512692;28;20629;-83
2022/07/14 01:38:20;;;;;;;2.43;2.23;;;22.60;68.40;;;;;;10504645;28;20213;-83
2022/07/14 01:43:22;;;;;;;2.00;1.90;;;22.60;68.40;;;;;;10537341;28;20627;-83
2022/07/14 01:48:24;;;;;;;2.17;2.07;;;22.50;69.40;;;;;;10537500;28;20235;-82
2022/07/14 01:53:28;;;;;;;4.10;1.83;;;22.40;69.40;;;;;;10531601;28;20204;-82
2022/07/14 01:58:30;;;;;;;1.83;1.73;;;22.30;69.00;;;;;;10534461;28;20651;-83
2022/07/14 02:03:33;;;;;;;2.03;1.93;;;22.20;70.10;;;;;;10532120;28;20204;-83
2022/07/14 02:08:37;;;;;;;2.50;2.20;;;22.10;68.40;;;;;;10540971;28;20582;-83
2022/07/14 02:13:39;;;;;;;2.57;2.20;;;22.10;69.60;;;;;;10551040;28;20206;-82
2022/07/14 02:18:44;;;;;;;2.43;2.13;;;22.00;69.80;;;;;;10543766;28;20216;-83
2022/07/14 02:23:47;;;;;;;2.47;2.37;;;21.90;70.30;;;;;;10547794;28;20199;-82
2022/07/14 02:28:49;;;;;;;2.30;2.10;;;21.80;69.80;;;;;;10542739;28;20220;-82
2022/07/14 02:33:51;;;;;;;2.00;1.90;;;21.70;70.30;;;;;;10547164;28;20245;-82
2022/07/14 02:38:56;;;;;;;1.80;1.70;;;21.70;69.30;;;;;;10546997;28;20238;-82
2022/07/14 02:43:59;;;;;;;2.00;1.90;;;21.70;69.90;;;;;;10547206;28;20279;-83
2022/07/14 02:49:01;;;;;;;2.20;2.10;;;21.60;69.00;;;;;;10546157;28;20265;-82
2022/07/14 02:54:04;;;;;;;1.80;1.70;;;21.50;69.30;;;;;;10530108;28;20223;-83
2022/07/14 02:59:08;;;;;;;2.00;1.90;;;21.50;69.00;;;;;;10548757;28;20227;-82
2022/07/14 03:04:14;;;;;;;2.07;1.97;;;21.40;69.60;;;;;;10529798;28;20200;-80
2022/07/14 03:09:18;;;;;;;2.00;1.90;;;21.40;70.00;;;;;;10545597;28;20212;-82
2022/07/14 03:14:20;;;;;;;2.23;2.03;;;21.40;68.30;;;;;;10546299;28;20675;-82
2022/07/14 03:19:23;;;;;;;3.37;1.93;;;21.30;67.50;;;;;;10528437;28;20220;-81
2022/07/14 03:24:27;;;;;;;2.30;2.20;;;21.30;66.60;;;;;;10546308;28;20196;-83
2022/07/14 03:29:29;;;;;;;2.73;2.40;;;21.20;66.30;;;;;;10535350;28;20269;-82
2022/07/14 03:34:31;;;;;;;2.40;2.30;;;21.10;66.10;;;;;;10542868;28;20192;-82
2022/07/14 03:39:35;;;;;;;2.20;2.10;;;21.10;68.70;;;;;;10537832;28;20220;-82
2022/07/14 03:44:37;;;;;;;2.10;2.00;;;21.00;70.00;;;;;;10533068;28;20278;-82
2022/07/14 03:49:39;;;;;;;2.40;2.20;;;21.00;68.30;;;;;;10512143;28;20246;-82
2022/07/14 03:54:49;;;;;;;2.50;2.20;;;21.00;68.70;;;;;;10537003;28;20203;-81
2022/07/14 03:59:54;;;;;;;2.50;2.30;;;21.00;68.40;;;;;;10520034;28;20710;-82
2022/07/14 04:04:57;;;;;;;2.20;2.10;;;21.00;68.70;;;;;;10524922;28;20222;-81
2022/07/14 04:10:00;;;;;;;2.23;2.03;;;21.00;68.90;;;;;;10548914;28;20253;-82
2022/07/14 04:15:03;;;;;;;2.20;2.10;;;20.90;70.70;;;;;;10520445;28;20192;-82
2022/07/14 04:20:07;;;;;;;4.00;2.00;;;20.90;70.00;;;;;;10522447;28;20691;-82
2022/07/14 04:25:13;;;;;;;2.10;2.00;;;20.90;69.60;;;;;;10507402;28;20676;-81
2022/07/14 04:30:16;;;;;;;2.40;2.30;;;20.90;70.00;;;;;;10522161;28;20227;-81
2022/07/14 04:35:18;;;;;;;1.77;1.67;;;20.90;72.00;;;;;;10534848;28;20207;-81
2022/07/14 04:40:22;;;;;;;2.50;2.13;;;20.90;72.50;;;;;;10544216;28;20318;-80
2022/07/14 04:45:25;;;;;;;2.20;2.10;;;20.90;71.10;;;;;;10545104;28;20226;-81
2022/07/14 04:55:53;;;;;;;2.37;2.23;;;20.90;73.00;;;;;;10542273;28;20199;-81
2022/07/14 05:01:30;;;;;;;2.03;1.93;;;21.00;73.50;;;;;;10458243;28;20215;-81
2022/07/14 05:06:33;;;;;;;3.00;2.20;;;21.00;72.00;;;;;;10530203;28;20224;-81
2022/07/14 05:11:38;;;;;;;2.80;2.40;;;21.00;70.70;;;;;;10532969;28;20273;-81
2022/07/14 05:16:40;;;;;;;2.40;2.30;;;21.00;71.30;;;;;;10513029;28;20228;-81
2022/07/14 05:21:42;;;;;;;2.20;1.50;;;21.00;72.40;;;;;;10541692;28;20656;-80
2022/07/14 05:26:46;;;;;;;2.57;2.37;;;21.10;72.20;;;;;;10542891;28;20254;-81
2022/07/14 05:31:48;;;;;;;2.50;2.30;;;21.10;73.20;;;;;;10531494;28;20307;-81
2022/07/14 05:36:50;;;;;;;9.43;2.20;;;21.20;73.90;;;;;;10520194;28;20721;-81
2022/07/14 05:41:54;;;;;;;2.23;2.13;;;21.20;72.80;;;;;;10538945;28;20196;-81
2022/07/14 05:46:56;;;;;;;3.30;2.23;;;21.30;73.30;;;;;;10536606;28;20255;-80
2022/07/14 05:52:01;;;;;;;2.60;2.40;;;21.40;73.60;;;;;;10536883;28;20229;-80
2022/07/14 05:57:05;;;;;;;2.40;2.30;;;21.40;74.60;;;;;;10529303;28;20219;-81
2022/07/14 06:02:07;;;;;;;3.30;2.50;;;21.50;75.90;;;;;;10521699;28;20197;-81
2022/07/14 06:07:10;;;;;;;2.60;1.47;;;21.60;75.90;;;;;;10536088;28;20233;-81
2022/07/14 06:12:17;;;;;;;5.27;2.73;;;21.70;76.40;;;;;;10537121;28;20249;-81
2022/07/14 06:17:21;;;;;;;4.60;2.53;;;21.80;75.00;;;;;;10533370;28;20229;-81
2022/07/14 06:22:23;;;;;;;2.00;1.90;;;22.00;73.00;;;;;;10514285;28;20307;-81
2022/07/14 06:27:28;;;;;;;3.70;2.27;;;22.20;74.20;;;;;;10536968;28;20328;-81
2022/07/14 06:32:30;;;;;;;2.37;2.27;;;22.40;73.20;;;;;;10532655;28;20652;-81
2022/07/14 06:37:35;;;;;;;3.20;3.00;;;22.60;73.20;;;;;;10537556;28;20615;-81
2022/07/14 06:42:39;;;;;;;2.60;2.40;;;22.80;74.20;;;;;;10533859;28;20242;-83
2022/07/14 06:48:00;;;;;;;2.40;2.30;;;23.00;74.20;;;;;;10560454;22;20247;-80
2022/07/14 06:53:04;;;;;;;3.60;2.27;;;23.30;74.40;;;;;;10512276;28;20213;-79
2022/07/14 06:58:07;;;;;;;1.83;1.70;;;23.50;73.00;;;;;;10512523;28;20243;-79
2022/07/14 07:03:13;;;;;;;3.07;2.77;;;23.70;72.80;;;;;;10492089;28;20204;-80
2022/07/14 07:08:15;;;;;;;1.93;1.83;;;24.00;72.10;;;;;;10507813;28;20213;-80
2022/07/14 07:13:18;;;;;;;2.73;2.53;;;24.30;71.90;;;;;;10517442;28;20227;-78
2022/07/14 07:18:20;;;;;;;2.80;2.30;;;24.60;71.20;;;;;;10521962;28;20244;-80
2022/07/14 07:23:23;;;;;;;2.50;2.40;;;24.80;70.90;;;;;;10525858;28;20204;-79
2022/07/14 07:28:26;;;;;;;2.63;2.43;;;25.00;71.50;;;;;;10523053;28;20216;-80
2022/07/14 07:33:28;;;;;;;2.57;2.37;;;25.40;71.60;;;;;;10511379;28;20246;-80
2022/07/14 07:38:30;;;;;;;4.73;4.10;;;26.00;70.60;;;;;;10492959;28;20216;-79
2022/07/14 07:43:34;;;;;;;3.37;2.97;;;26.50;69.40;;;;;;10521989;28;20201;-79
2022/07/14 07:48:36;;;;;;;3.83;3.03;;;26.90;70.40;;;;;;10520778;28;20416;-79
2022/07/14 07:53:38;;;;;;;4.00;2.70;;;27.10;70.10;;;;;;10518977;28;20238;-79
2022/07/14 07:58:48;;;;;;;3.60;2.50;;;27.30;69.00;;;;;;10515376;28;20232;-82
2022/07/14 08:03:50;;;;;;;3.47;3.13;;;27.50;68.70;;;;;;10509946;28;20303;-79
2022/07/14 08:08:52;;;;;;;3.27;2.70;;;27.90;67.20;;;;;;10510270;28;20224;-80
2022/07/14 08:13:55;;;;;;;2.63;2.47;;;28.20;66.00;;;;;;10506756;28;20637;-81
2022/07/14 08:18:57;;;;;;;2.83;2.63;;;28.40;65.40;;;;;;10504038;28;20222;-80
2022/07/14 08:23:59;;;;;;;2.67;2.47;;;28.80;58.70;;;;;;10505736;28;20236;-80
2022/07/14 08:29:03;;;;;;;2.50;2.30;;;29.20;57.30;;;;;;10515751;28;20216;-80
2022/07/14 08:34:05;;;;;;;3.20;3.00;;;29.40;58.20;;;;;;10509285;28;20224;-80
2022/07/14 08:39:08;;;;;;;3.37;3.07;;;29.60;59.00;;;;;;10513487;28;20221;-80
2022/07/14 08:44:14;;;;;;;3.10;2.80;;;29.90;58.50;;;;;;10491351;28;20666;-82
2022/07/14 08:49:17;;;;;;;2.53;2.40;;;30.00;57.20;;;;;;10499582;28;20226;-82
2022/07/14 08:54:23;;;;;;;2.90;2.77;;;30.00;53.10;;;;;;10500365;28;20228;-81
2022/07/14 08:59:29;;;;;;;2.43;2.23;;;30.40;52.30;;;;;;10513761;28;20212;-80
2022/07/14 09:04:31;;;;;;;5.63;3.00;;;30.80;52.60;;;;;;10500983;28;20251;-81
2022/07/14 09:09:34;;;;;;;2.40;2.13;;;31.40;51.40;;;;;;10488107;28;20685;-81
2022/07/14 09:20:13;;;;;;;2.50;2.30;;;32.60;47.30;;;;;;10504251;28;20228;-81
2022/07/14 09:25:18;;;;;;;2.10;2.00;;;33.10;49.20;;;;;;10507695;28;20206;-80
2022/07/14 09:30:23;;;;;;;2.10;2.00;;;33.60;47.30;;;;;;10497660;28;20216;-81
2022/07/14 09:35:27;;;;;;;2.07;1.87;;;34.00;47.20;;;;;;10484905;28;20568;-81
2022/07/14 09:40:32;;;;;;;4.73;2.37;;;34.50;47.20;;;;;;10502534;28;20293;-81
2022/07/14 09:45:37;;;;;;;2.23;2.13;;;34.60;45.60;;;;;;10489407;28;20278;-81
2022/07/14 09:50:43;;;;;;;2.10;2.00;;;34.80;45.60;;;;;;10501505;28;20398;-80
2022/07/14 09:55:53;;;;;;;1.73;1.63;;;35.30;44.20;;;;;;10471826;28;20617;-81
2022/07/14 10:01:01;;;;;;;2.30;2.20;;;35.60;42.40;;;;;;10492231;28;20215;-80
2022/07/14 10:06:04;;;;;;;2.30;2.20;;;36.10;42.50;;;;;;10474614;28;20637;-81
2022/07/14 10:11:18;;;;;;;2.40;2.20;;;36.80;42.50;;;;;;10493872;28;20745;-81
2022/07/14 10:16:24;;;;;;;2.20;2.10;;;36.60;41.50;;;;;;10490600;28;20196;-81
2022/07/14 10:21:28;;;;;;;2.40;2.30;;;36.20;41.10;;;;;;10498349;28;20224;-80
2022/07/14 10:26:31;;;;;;;2.40;2.30;;;36.00;41.90;;;;;;10482760;28;20227;-80
2022/07/14 10:31:44;;;;;;;2.33;2.23;;;35.70;40.60;;;;;;10513801;28;20172;-81
2022/07/14 10:36:52;;;;;;;2.40;2.20;;;35.10;41.40;;;;;;10508077;28;20273;-80
2022/07/14 10:42:05;;;;;;;2.30;2.10;;;34.20;42.80;;;;;;10470441;28;20591;-80
2022/07/14 10:47:10;;;;;;;2.13;1.90;;;33.40;44.30;;;;;;10499036;28;20594;-81
2022/07/14 10:52:25;;;;;;;2.77;2.50;;;32.80;45.20;;;;;;10481619;28;20575;-82
2022/07/14 10:57:28;;;;;;;2.13;2.03;;;32.20;45.40;;;;;;10513164;28;20222;-79
2022/07/14 11:02:37;;;;;;;2.20;2.10;;;31.80;44.50;;;;;;10465836;28;20224;-79
2022/07/14 11:07:46;;;;;;;2.73;2.50;;;31.40;43.90;;;;;;10470582;28;20212;-82
2022/07/14 11:13:10;;;;;;;2.30;2.20;;;31.10;45.30;;;;;;10495857;28;20661;-80
2022/07/14 11:18:33;;;;;;;2.30;2.20;;;30.80;46.80;;;;;;10495800;28;20234;-81
2022/07/14 11:23:37;;;;;;;1.90;1.80;;;30.60;46.50;;;;;;10465744;28;20517;-79
2022/07/14 11:28:42;;;;;;;3.43;2.33;;;30.40;46.10;;;;;;10504090;28;20223;-80
2022/07/14 11:39:24;;;;;;;2.70;2.50;;;30.20;46.60;;;;;;10503329;28;20729;-82
2022/07/14 11:44:46;;;;;;;2.60;2.50;;;29.90;48.30;;;;;;10497168;28;20204;-82
2022/07/14 11:49:55;;;;;;;2.77;1.90;;;29.70;49.20;;;;;;10507175;28;20757;-82
2022/07/14 11:54:59;;;;;;;4.00;2.67;;;29.70;48.60;;;;;;10502618;28;20223;-81
2022/07/14 12:00:04;;;;;;;2.43;2.33;;;29.60;49.40;;;;;;10499415;28;20205;-79
2022/07/14 12:05:11;;;;;;;2.90;2.40;;;29.60;48.10;;;;;;10495941;28;20250;-80
2022/07/14 12:10:15;;;;;;;3.03;2.87;;;29.60;50.80;;;;;;10504209;28;20236;-81
2022/07/14 12:15:24;;;;;;;3.63;3.43;;;29.50;49.00;;;;;;10477625;28;20199;-80
2022/07/14 12:20:35;;;;;;;3.60;2.70;;;29.60;48.50;;;;;;10502365;28;20237;-81
2022/07/14 12:25:40;;;;;;;3.00;2.70;;;29.70;51.40;;;;;;10478857;28;20273;-82
2022/07/14 12:30:47;;;;;;;3.10;2.90;;;29.70;50.20;;;;;;10487028;28;20212;-80
2022/07/14 12:35:53;;;;;;;2.60;2.40;;;29.80;50.80;;;;;;10489427;28;20205;-82
2022/07/14 12:40:58;;;;;;;2.30;2.20;;;30.10;48.50;;;;;;10495756;28;20235;-82
2022/07/14 12:46:05;;;;;;;2.50;2.40;;;30.50;48.00;;;;;;10503123;28;20205;-82
2022/07/14 12:51:20;;;;;;;2.60;2.40;;;30.90;46.30;;;;;;10487910;22;20227;-83
2022/07/14 12:56:23;;;;;;;2.73;1.67;;;31.20;47.70;;;;;;10484621;28;20203;-82
2022/07/14 13:01:26;;;;;;;2.83;2.07;;;31.50;44.00;;;;;;10492965;28;20235;-83
2022/07/14 13:06:42;;;;;;;3.93;2.20;;;31.60;44.40;;;;;;10486550;28;20733;-83
2022/07/14 13:11:46;;;;;;;3.63;2.60;;;31.70;45.70;;;;;;10495406;28;20192;-83
2022/07/14 13:16:49;;;;;;;3.33;2.33;;;31.80;44.90;;;;;;10488420;28;20224;-82
2022/07/14 13:22:02;;;;;;;2.50;2.20;;;31.90;44.30;;;;;;10490766;28;20212;-82
2022/07/14 13:27:08;;;;;;;2.30;2.20;;;31.90;44.10;;;;;;10491136;28;20311;-83
2022/07/14 13:32:11;;;;;;;8.73;2.80;;;31.80;45.40;;;;;;10490334;28;20197;-82
2022/07/14 13:37:17;;;;;;;2.07;1.97;;;31.80;47.10;;;;;;10493570;28;20280;-83
2022/07/14 13:42:19;;;;;;;4.10;2.40;;;31.80;46.70;;;;;;10488487;28;20216;-83
2022/07/14 13:47:21;;;;;;;2.47;2.27;;;31.90;47.10;;;;;;10473598;28;20553;-83
2022/07/14 13:52:25;;;;;;;2.30;2.10;;;32.00;46.20;;;;;;10492353;28;20383;-83
2022/07/14 13:57:27;;;;;;;2.23;2.10;;;32.10;44.90;;;;;;10494763;28;20220;-83
2022/07/14 14:03:22;;;;;;;2.93;2.40;;;32.00;44.30;;;;;;10485614;28;20298;-83
2022/07/14 14:07:53;;;;;;;3.40;3.10;;;31.90;44.80;;;;;;10495486;28;20224;-83
2022/07/14 14:12:55;;;;;;;2.77;2.30;;;31.70;45.30;;;;;;10480526;28;20565;-83
2022/07/14 14:17:58;;;;;;;9.53;2.93;;;31.70;46.20;;;;;;10499395;28;20311;-83
2022/07/14 14:23:01;;;;;;;2.23;1.80;;;31.70;45.90;;;;;;10499742;28;20220;-83
2022/07/14 14:28:05;;;;;;;4.03;2.40;;;31.70;46.40;;;;;;10485764;28;20228;-83
2022/07/14 14:33:08;;;;;;;2.83;2.63;;;31.80;46.60;;;;;;10478315;28;20258;-82
2022/07/14 14:38:12;;;;;;;3.07;1.93;;;31.90;45.50;;;;;;10489316;28;20700;-82
2022/07/14 14:43:14;;;;;;;2.53;2.40;;;31.70;46.70;;;;;;10481461;28;20248;-83
2022/07/14 14:48:17;;;;;;;2.53;2.30;;;31.40;46.80;;;;;;10499023;28;20603;-83
2022/07/14 14:53:21;;;;;;;3.20;3.00;;;31.20;49.00;;;;;;10493171;28;20200;-82
2022/07/14 15:03:47;;;;;;;2.30;2.20;;;30.70;49.70;;;;;;10494941;28;20278;-83
2022/07/14 15:08:51;;;;;;;5.57;2.53;;;30.60;51.30;;;;;;10496246;28;20252;-84
2022/07/14 15:13:53;;;;;;;2.63;2.53;;;30.50;50.40;;;;;;10492026;28;20206;-83
2022/07/14 15:18:56;;;;;;;2.80;2.60;;;30.40;50.90;;;;;;10476094;28;20684;-83
2022/07/14 15:23:59;;;;;;;3.00;2.80;;;30.40;50.40;;;;;;10486421;28;20228;-83
2022/07/14 15:29:02;;;;;;;2.10;2.00;;;30.40;50.60;;;;;;10470759;28;20319;-83
2022/07/14 15:34:04;;;;;;;2.97;2.77;;;30.30;52.20;;;;;;10496242;28;20200;-83
2022/07/14 15:44:28;;;;;;;4.90;2.23;;;30.30;50.60;;;;;;10492192;28;20230;-83
2022/07/14 15:49:30;;;;;;;2.87;2.67;;;30.30;52.30;;;;;;10493259;28;20259;-84
2022/07/14 15:54:34;;;;;;;2.90;2.70;;;30.40;51.20;;;;;;10487750;28;20315;-83
2022/07/14 15:59:37;;;;;;;3.80;2.93;;;30.30;52.90;;;;;;10493928;28;20220;-83
2022/07/14 16:04:39;;;;;;;3.10;2.90;;;30.20;52.90;;;;;;10489439;28;20656;-83
2022/07/14 16:09:43;;;;;;;4.97;2.70;;;30.10;52.30;;;;;;10478653;28;20779;-83
2022/07/14 16:14:45;;;;;;;4.90;2.80;;;30.00;53.10;;;;;;10466137;28;20676;-84
2022/07/14 16:19:47;;;;;;;3.80;2.73;;;29.90;54.60;;;;;;10473055;28;20221;-84
2022/07/14 16:24:50;;;;;;;3.57;3.17;;;29.90;55.30;;;;;;10479267;28;20213;-83
2022/07/14 16:29:53;;;;;;;3.93;3.63;;;29.80;56.00;;;;;;10474357;28;20277;-83
2022/07/14 16:34:55;;;;;;;4.57;3.47;;;29.80;56.40;;;;;;10472435;28;20193;-83
2022/07/14 16:39:58;;;;;;;3.07;2.87;;;29.80;56.80;;;;;;10438674;28;20626;-83
2022/07/14 16:45:00;;;;;;;4.00;3.70;;;29.70;57.20;;;;;;10456296;28;20565;-83
2022/07/14 16:50:02;;;;;;;3.90;3.60;;;29.60;57.80;;;;;;10462360;28;20602;-84
2022/07/14 16:55:07;;;;;;;3.87;3.67;;;29.50;57.60;;;;;;10460364;28;20186;-84
2022/07/14 17:00:13;;;;;;;4.13;3.90;;;29.40;57.40;;;;;;10458912;28;20228;-84
2022/07/14 17:10:35;;;;;;;3.67;3.47;;;29.30;58.00;;;;;;10444629;28;20228;-84
2022/07/14 17:15:39;;;;;;;4.03;3.73;;;29.30;58.60;;;;;;10489466;28;20219;-84
2022/07/14 17:20:41;;;;;;;4.33;3.93;;;29.40;59.20;;;;;;10458418;28;20221;-84
2022/07/14 17:25:46;;;;;;;5.10;4.60;;;29.30;58.40;;;;;;10468121;28;20304;-84
2022/07/14 17:30:48;;;;;;;6.03;4.40;;;29.20;58.80;;;;;;10468622;28;20216;-84
2022/07/14 17:35:51;;;;;;;5.30;4.80;;;29.10;59.60;;;;;;10476308;28;20203;-84
2022/07/14 17:40:56;;;;;;;5.30;4.90;;;29.00;59.80;;;;;;10471546;28;20254;-84
2022/07/14 17:45:59;;;;;;;4.53;4.13;;;29.00;59.80;;;;;;10489771;28;20210;-84
2022/07/14 17:56:18;;;;;;;5.10;4.17;;;28.70;56.10;;;;;;10485518;28;20243;-83
2022/07/14 18:01:20;;;;;;;4.53;3.70;;;28.50;55.80;;;;;;10490476;28;20243;-84
2022/07/14 18:06:22;;;;;;;5.20;3.80;;;28.30;54.30;;;;;;10457822;28;20193;-82
2022/07/14 18:11:26;;;;;;;4.90;3.73;;;28.00;54.30;;;;;;10461869;28;20212;-83
2022/07/14 18:16:28;;;;;;;4.20;3.80;;;27.80;54.50;;;;;;10485705;28;20291;-84
2022/07/14 18:21:34;;;;;;;6.50;3.70;;;27.60;54.30;;;;;;10489657;28;20220;-83
2022/07/14 18:26:40;;;;;;;3.40;3.20;;;27.40;54.40;;;;;;10484786;28;20679;-83
2022/07/14 18:31:42;;;;;;;3.97;3.67;;;27.20;54.30;;;;;;10481155;28;20724;-85
2022/07/14 18:36:44;;;;;;;3.90;3.50;;;27.00;55.00;;;;;;10485083;28;20714;-83
2022/07/14 18:41:48;;;;;;;4.47;3.40;;;26.90;55.30;;;;;;10484348;28;20277;-83
2022/07/14 18:46:50;;;;;;;4.23;3.90;;;26.70;55.30;;;;;;10487358;28;20224;-83
2022/07/14 18:51:52;;;;;;;4.30;4.10;;;26.60;55.90;;;;;;10480942;22;20229;-84
2022/07/14 18:56:55;;;;;;;4.27;3.97;;;26.50;56.70;;;;;;10467196;28;20197;-80
2022/07/14 19:01:58;;;;;;;4.27;3.87;;;26.40;57.10;;;;;;10468437;28;20217;-80
2022/07/14 19:07:00;;;;;;;4.60;4.30;;;26.40;56.20;;;;;;10468708;28;20201;-79
2022/07/14 19:12:04;;;;;;;4.10;3.80;;;26.20;56.30;;;;;;10468049;28;20296;-79
2022/07/14 19:17:06;;;;;;;5.50;4.13;;;26.20;56.00;;;;;;10465658;28;20220;-80
2022/07/14 19:22:09;;;;;;;4.90;4.60;;;26.10;56.60;;;;;;10467046;28;20229;-80
2022/07/14 19:27:15;;;;;;;7.07;4.47;;;26.00;56.90;;;;;;10469845;28;20208;-80
2022/07/14 19:32:17;;;;;;;4.10;3.70;;;26.00;56.50;;;;;;10468308;28;20223;-79
2022/07/14 19:37:22;;;;;;;4.10;3.73;;;25.90;56.80;;;;;;10463645;28;20242;-81
2022/07/14 19:42:25;;;;;;;3.80;3.47;;;25.80;56.80;;;;;;10463934;28;20217;-80
2022/07/14 19:47:27;;;;;;;4.27;3.97;;;25.80;57.10;;;;;;10488284;28;20221;-80
2022/07/14 19:52:31;;;;;;;4.73;4.23;;;25.70;57.30;;;;;;10490324;28;20197;-79
2022/07/14 19:57:35;;;;;;;5.67;4.00;;;25.60;57.10;;;;;;10464248;28;20225;-79
2022/07/14 20:02:38;;;;;;;5.77;4.37;;;25.60;57.20;;;;;;10463218;28;20232;-80
2022/07/14 20:07:40;;;;;;;4.47;4.10;;;25.60;57.50;;;;;;10460040;28;20232;-80
2022/07/14 20:12:43;;;;;;;4.67;4.07;;;25.60;58.20;;;;;;10464134;28;20281;-80
2022/07/14 20:17:45;;;;;;;4.73;4.17;;;25.50;58.20;;;;;;10463479;28;20228;-81
2022/07/14 20:22:48;;;;;;;4.27;3.97;;;25.50;58.40;;;;;;10462470;28;20221;-79
2022/07/14 20:33:12;;;;;;;7.23;4.20;;;25.50;58.00;;;;;;10473266;28;20580;-80
2022/07/14 20:38:14;;;;;;;5.57;4.77;;;25.50;58.00;;;;;;10462499;28;20225;-79
2022/07/14 20:43:17;;;;;;;4.13;3.83;;;25.40;58.50;;;;;;10454762;28;20477;-83
2022/07/14 20:48:21;;;;;;;5.57;4.67;;;25.40;58.50;;;;;;10452584;28;20657;-80
2022/07/14 20:53:24;;;;;;;4.07;3.77;;;25.30;59.40;;;;;;10457152;28;20227;-79
2022/07/14 20:58:27;;;;;;;3.97;3.67;;;25.20;58.30;;;;;;10454581;28;20221;-82
2022/07/14 21:03:29;;;;;;;6.10;4.07;;;25.10;57.80;;;;;;10456170;28;20288;-81
2022/07/14 21:08:31;;;;;;;4.67;4.20;;;25.10;57.80;;;;;;10457187;28;20330;-82
2022/07/14 21:13:35;;;;;;;3.90;3.70;;;25.00;60.00;;;;;;10452499;28;20685;-80
2022/07/14 21:18:37;;;;;;;4.50;4.10;;;25.00;58.10;;;;;;10451434;28;20231;-79
2022/07/14 21:23:39;;;;;;;5.30;4.10;;;24.90;57.30;;;;;;10454511;28;20221;-82
2022/07/14 21:28:43;;;;;;;4.50;4.10;;;24.80;57.60;;;;;;10452165;28;20251;-83
2022/07/14 21:33:45;;;;;;;4.83;4.40;;;24.70;58.10;;;;;;10452251;28;20581;-80
2022/07/14 21:38:48;;;;;;;9.50;4.13;;;24.70;59.20;;;;;;10455542;28;20527;-79
2022/07/14 21:43:52;;;;;;;4.53;4.23;;;24.60;57.80;;;;;;10448995;28;20225;-84
2022/07/14 21:48:54;;;;;;;4.30;3.97;;;24.60;59.40;;;;;;10468735;28;20233;-79
2022/07/14 21:53:57;;;;;;;4.00;3.70;;;24.50;60.90;;;;;;10449705;28;20301;-81
2022/07/14 21:59:00;;;;;;;3.50;3.20;;;24.50;60.30;;;;;;10453770;28;20243;-81
2022/07/14 22:04:03;;;;;;;4.27;3.90;;;24.40;59.20;;;;;;10454327;28;20300;-82
2022/07/14 22:09:05;;;;;;;4.67;3.90;;;24.40;57.70;;;;;;10451606;28;20244;-79
2022/07/14 22:14:09;;;;;;;4.10;3.47;;;24.30;57.30;;;;;;10452387;28;20291;-80
2022/07/14 22:19:12;;;;;;;4.40;3.77;;;24.30;56.80;;;;;;10450064;28;20252;-81
2022/07/14 22:24:14;;;;;;;3.90;3.60;;;24.20;57.00;;;;;;10457319;28;20255;-81
2022/07/14 22:29:18;;;;;;;4.20;3.90;;;24.20;57.70;;;;;;10459458;28;20220;-81
2022/07/14 22:34:20;;;;;;;3.70;3.40;;;24.10;58.00;;;;;;10460849;28;20193;-80
2022/07/14 22:39:22;;;;;;;4.17;3.67;;;24.00;57.10;;;;;;10460651;28;20229;-80
2022/07/14 22:44:26;;;;;;;5.20;4.13;;;24.00;57.50;;;;;;10459504;28;20704;-81
2022/07/14 22:49:28;;;;;;;3.83;3.53;;;23.90;59.00;;;;;;10467167;28;20243;-81
2022/07/14 22:54:30;;;;;;;5.30;3.77;;;23.90;57.50;;;;;;10459764;28;20193;-81
2022/07/14 22:59:33;;;;;;;4.07;3.67;;;23.80;57.20;;;;;;10458066;28;20224;-80
2022/07/14 23:04:35;;;;;;;3.83;3.40;;;23.80;56.10;;;;;;10473035;28;20310;-80
2022/07/14 23:09:37;;;;;;;5.40;3.87;;;23.70;58.00;;;;;;10461411;28;20229;-80
2022/07/14 23:19:57;;;;;;;3.53;3.23;;;23.60;58.00;;;;;;10463456;28;20231;-81
2022/07/14 23:24:59;;;;;;;3.70;3.43;;;23.60;56.50;;;;;;10459560;28;20710;-82
2022/07/14 23:30:02;;;;;;;3.53;3.33;;;23.50;56.20;;;;;;10472581;28;20221;-82
2022/07/14 23:35:06;;;;;;;8.67;3.17;;;23.50;55.20;;;;;;10457125;28;20197;-79
2022/07/14 23:40:11;;;;;;;3.40;3.10;;;23.40;55.40;;;;;;10457815;28;20221;-79
2022/07/14 23:45:15;;;;;;;3.20;3.00;;;23.30;55.70;;;;;;10443881;28;20568;-83
2022/07/14 23:50:17;;;;;;;3.10;2.90;;;23.30;59.10;;;;;;10459041;28;20232;-81
2022/07/14 23:55:22;;;;;;;3.83;3.37;;;23.20;56.10;;;;;;10449670;28;20660;-80
